sensor_id;sensor_type;location;lat;lon;timestamp;P1;durP1;ratioP1;P2;durP2;ratioP2
20324;SDS011;10320;49.482;11.256;2023-07-08T00:01:23;5.00;;;4.40;;
20324;SDS011;10320;49.482;11.256;2023-07-08T00:03:49;7.13;;;4.50;;
20324;SDS011;10320;49.482;11.256;2023-07-08T00:06:24;4.80;;;4.33;;
20324;SDS011;10320;49.482;11.256;2023-07-08T00:08:51;5.13;;;4.67;;
20324;SDS011;10320;49.482;11.256;2023-07-08T00:11:17;4.77;;;4.23;;
20324;SDS011;10320;49.482;11.256;2023-07-08T00:13:43;4.73;;;4.23;;
20324;SDS011;10320;49.482;11.256;2023-07-08T00:16:10;6.60;;;4.60;;
20324;SDS011;10320;49.482;11.256;2023-07-08T00:18:36;5.37;;;4.13;;
20324;SDS011;10320;49.482;11.256;2023-07-08T00:21:04;4.80;;;4.40;;
20324;SDS011;10320;49.482;11.256;2023-07-08T00:23:30;5.10;;;4.27;;
20324;SDS011;10320;49.482;11.256;2023-07-08T00:25:56;4.97;;;4.50;;
20324;SDS011;10320;49.482;11.256;2023-07-08T00:28:22;5.53;;;4.67;;
20324;SDS011;10320;49.482;11.256;2023-07-08T00:30:48;4.83;;;4.43;;
20324;SDS011;10320;49.482;11.256;2023-07-08T00:33:14;4.53;;;4.13;;
20324;SDS011;10320;49.482;11.256;2023-07-08T00:35:44;5.30;;;4.80;;
20324;SDS011;10320;49.482;11.256;2023-07-08T00:38:26;5.03;;;4.63;;
20324;SDS011;10320;49.482;11.256;2023-07-08T00:40:58;5.20;;;4.70;;
20324;SDS011;10320;49.482;11.256;2023-07-08T00:43:30;4.80;;;4.40;;
20324;SDS011;10320;49.482;11.256;2023-07-08T00:48:49;5.00;;;4.50;;
20324;SDS011;10320;49.482;11.256;2023-07-08T00:51:17;5.20;;;4.70;;
20324;SDS011;10320;49.482;11.256;2023-07-08T00:53:44;5.33;;;4.83;;
20324;SDS011;10320;49.482;11.256;2023-07-08T00:56:17;5.30;;;4.80;;
20324;SDS011;10320;49.482;11.256;2023-07-08T00:58:47;5.40;;;4.70;;
20324;SDS011;10320;49.482;11.256;2023-07-08T01:01:15;5.07;;;4.57;;
20324;SDS011;10320;49.482;11.256;2023-07-08T01:03:56;5.27;;;4.77;;
20324;SDS011;10320;49.482;11.256;2023-07-08T01:06:26;5.50;;;4.53;;
20324;SDS011;10320;49.482;11.256;2023-07-08T01:08:57;4.90;;;4.43;;
20324;SDS011;10320;49.482;11.256;2023-07-08T01:11:30;5.20;;;4.70;;
20324;SDS011;10320;49.482;11.256;2023-07-08T01:13:56;5.30;;;4.80;;
20324;SDS011;10320;49.482;11.256;2023-07-08T01:16:23;5.33;;;4.83;;
20324;SDS011;10320;49.482;11.256;2023-07-08T01:18:49;5.10;;;4.57;;
20324;SDS011;10320;49.482;11.256;2023-07-08T01:23:53;5.30;;;4.80;;
20324;SDS011;10320;49.482;11.256;2023-07-08T01:26:21;5.37;;;4.37;;
20324;SDS011;10320;49.482;11.256;2023-07-08T01:28:48;6.37;;;4.47;;
20324;SDS011;10320;49.482;11.256;2023-07-08T01:31:15;4.83;;;4.33;;
20324;SDS011;10320;49.482;11.256;2023-07-08T01:33:41;4.77;;;4.37;;
20324;SDS011;10320;49.482;11.256;2023-07-08T01:36:08;5.07;;;4.50;;
20324;SDS011;10320;49.482;11.256;2023-07-08T01:38:34;5.43;;;4.90;;
20324;SDS011;10320;49.482;11.256;2023-07-08T01:41:00;4.70;;;4.30;;
20324;SDS011;10320;49.482;11.256;2023-07-08T01:43:26;5.17;;;4.70;;
20324;SDS011;10320;49.482;11.256;2023-07-08T01:45:52;5.77;;;5.13;;
20324;SDS011;10320;49.482;11.256;2023-07-08T01:48:20;5.10;;;4.60;;
20324;SDS011;10320;49.482;11.256;2023-07-08T01:50:51;4.80;;;4.40;;
20324;SDS011;10320;49.482;11.256;2023-07-08T01:53:37;5.30;;;4.80;;
20324;SDS011;10320;49.482;11.256;2023-07-08T01:56:03;5.43;;;4.93;;
20324;SDS011;10320;49.482;11.256;2023-07-08T01:58:30;4.57;;;4.17;;
20324;SDS011;10320;49.482;11.256;2023-07-08T02:00:56;5.70;;;4.47;;
20324;SDS011;10320;49.482;11.256;2023-07-08T02:03:23;5.13;;;4.63;;
20324;SDS011;10320;49.482;11.256;2023-07-08T02:05:49;5.27;;;4.77;;
20324;SDS011;10320;49.482;11.256;2023-07-08T02:08:15;5.73;;;4.93;;
20324;SDS011;10320;49.482;11.256;2023-07-08T02:10:41;5.53;;;5.03;;
20324;SDS011;10320;49.482;11.256;2023-07-08T02:13:08;5.03;;;4.53;;
20324;SDS011;10320;49.482;11.256;2023-07-08T02:15:34;5.80;;;4.87;;
20324;SDS011;10320;49.482;11.256;2023-07-08T02:18:00;5.33;;;4.67;;
20324;SDS011;10320;49.482;11.256;2023-07-08T02:20:26;5.03;;;4.53;;
20324;SDS011;10320;49.482;11.256;2023-07-08T02:22:52;5.23;;;4.73;;
20324;SDS011;10320;49.482;11.256;2023-07-08T02:25:18;5.60;;;5.00;;
20324;SDS011;10320;49.482;11.256;2023-07-08T02:27:44;5.20;;;4.70;;
20324;SDS011;10320;49.482;11.256;2023-07-08T02:30:10;5.27;;;4.77;;
20324;SDS011;10320;49.482;11.256;2023-07-08T02:32:36;5.90;;;5.20;;
20324;SDS011;10320;49.482;11.256;2023-07-08T02:35:04;5.83;;;4.60;;
20324;SDS011;10320;49.482;11.256;2023-07-08T02:37:30;5.93;;;4.97;;
20324;SDS011;10320;49.482;11.256;2023-07-08T02:39:57;7.30;;;5.50;;
20324;SDS011;10320;49.482;11.256;2023-07-08T02:42:23;5.33;;;4.83;;
20324;SDS011;10320;49.482;11.256;2023-07-08T02:44:49;5.27;;;4.77;;
20324;SDS011;10320;49.482;11.256;2023-07-08T02:47:15;5.43;;;4.93;;
20324;SDS011;10320;49.482;11.256;2023-07-08T02:49:41;6.07;;;4.80;;
20324;SDS011;10320;49.482;11.256;2023-07-08T02:52:07;5.13;;;4.63;;
20324;SDS011;10320;49.482;11.256;2023-07-08T02:54:33;5.33;;;4.83;;
20324;SDS011;10320;49.482;11.256;2023-07-08T02:56:59;5.10;;;4.63;;
20324;SDS011;10320;49.482;11.256;2023-07-08T02:59:25;5.37;;;4.87;;
20324;SDS011;10320;49.482;11.256;2023-07-08T03:01:54;5.30;;;4.80;;
20324;SDS011;10320;49.482;11.256;2023-07-08T03:04:20;5.33;;;4.83;;
20324;SDS011;10320;49.482;11.256;2023-07-08T03:06:47;5.23;;;4.73;;
20324;SDS011;10320;49.482;11.256;2023-07-08T03:09:13;5.60;;;5.10;;
20324;SDS011;10320;49.482;11.256;2023-07-08T03:11:39;5.03;;;4.57;;
20324;SDS011;10320;49.482;11.256;2023-07-08T03:14:05;6.50;;;5.10;;
20324;SDS011;10320;49.482;11.256;2023-07-08T03:16:32;5.80;;;5.20;;
20324;SDS011;10320;49.482;11.256;2023-07-08T03:18:58;5.13;;;4.70;;
20324;SDS011;10320;49.482;11.256;2023-07-08T03:21:24;6.27;;;5.40;;
20324;SDS011;10320;49.482;11.256;2023-07-08T03:23:50;5.10;;;4.70;;
20324;SDS011;10320;49.482;11.256;2023-07-08T03:26:18;5.50;;;5.00;;
20324;SDS011;10320;49.482;11.256;2023-07-08T03:28:45;5.43;;;4.97;;
20324;SDS011;10320;49.482;11.256;2023-07-08T03:31:11;6.10;;;5.50;;
20324;SDS011;10320;49.482;11.256;2023-07-08T03:33:37;6.33;;;5.03;;
20324;SDS011;10320;49.482;11.256;2023-07-08T03:36:04;6.60;;;5.23;;
20324;SDS011;10320;49.482;11.256;2023-07-08T03:38:30;5.50;;;5.00;;
20324;SDS011;10320;49.482;11.256;2023-07-08T03:40:56;5.27;;;4.77;;
20324;SDS011;10320;49.482;11.256;2023-07-08T03:43:22;5.47;;;4.97;;
20324;SDS011;10320;49.482;11.256;2023-07-08T03:45:48;5.60;;;5.10;;
20324;SDS011;10320;49.482;11.256;2023-07-08T03:48:14;5.13;;;4.63;;
20324;SDS011;10320;49.482;11.256;2023-07-08T03:50:40;5.37;;;4.87;;
20324;SDS011;10320;49.482;11.256;2023-07-08T03:53:08;5.40;;;5.00;;
20324;SDS011;10320;49.482;11.256;2023-07-08T03:55:34;5.67;;;5.10;;
20324;SDS011;10320;49.482;11.256;2023-07-08T03:58:00;5.80;;;5.20;;
20324;SDS011;10320;49.482;11.256;2023-07-08T04:00:26;5.23;;;4.70;;
20324;SDS011;10320;49.482;11.256;2023-07-08T04:02:52;5.63;;;5.13;;
20324;SDS011;10320;49.482;11.256;2023-07-08T04:05:20;5.13;;;4.63;;
20324;SDS011;10320;49.482;11.256;2023-07-08T04:07:47;5.37;;;4.87;;
20324;SDS011;10320;49.482;11.256;2023-07-08T04:10:14;5.33;;;4.83;;
20324;SDS011;10320;49.482;11.256;2023-07-08T04:12:41;5.57;;;5.07;;
20324;SDS011;10320;49.482;11.256;2023-07-08T04:15:08;5.73;;;5.13;;
20324;SDS011;10320;49.482;11.256;2023-07-08T04:17:48;5.07;;;4.60;;
20324;SDS011;10320;49.482;11.256;2023-07-08T04:20:15;5.50;;;5.00;;
20324;SDS011;10320;49.482;11.256;2023-07-08T04:22:42;5.40;;;4.90;;
20324;SDS011;10320;49.482;11.256;2023-07-08T04:25:08;5.63;;;5.07;;
20324;SDS011;10320;49.482;11.256;2023-07-08T04:27:36;5.50;;;4.90;;
20324;SDS011;10320;49.482;11.256;2023-07-08T04:30:02;5.77;;;5.20;;
20324;SDS011;10320;49.482;11.256;2023-07-08T04:32:29;5.90;;;5.30;;
20324;SDS011;10320;49.482;11.256;2023-07-08T04:34:55;5.97;;;5.23;;
20324;SDS011;10320;49.482;11.256;2023-07-08T04:37:21;5.87;;;5.27;;
20324;SDS011;10320;49.482;11.256;2023-07-08T04:39:47;5.30;;;4.80;;
20324;SDS011;10320;49.482;11.256;2023-07-08T04:42:14;5.47;;;4.97;;
20324;SDS011;10320;49.482;11.256;2023-07-08T04:44:42;5.53;;;5.03;;
20324;SDS011;10320;49.482;11.256;2023-07-08T04:47:08;5.80;;;5.20;;
20324;SDS011;10320;49.482;11.256;2023-07-08T04:49:34;5.73;;;5.23;;
20324;SDS011;10320;49.482;11.256;2023-07-08T04:52:00;5.40;;;4.93;;
20324;SDS011;10320;49.482;11.256;2023-07-08T04:54:27;6.23;;;4.90;;
20324;SDS011;10320;49.482;11.256;2023-07-08T04:56:53;5.37;;;4.87;;
20324;SDS011;10320;49.482;11.256;2023-07-08T04:59:20;7.53;;;5.07;;
20324;SDS011;10320;49.482;11.256;2023-07-08T05:01:46;4.50;;;4.10;;
20324;SDS011;10320;49.482;11.256;2023-07-08T05:04:13;5.20;;;4.70;;
20324;SDS011;10320;49.482;11.256;2023-07-08T05:06:39;5.20;;;4.73;;
20324;SDS011;10320;49.482;11.256;2023-07-08T05:09:06;5.80;;;4.90;;
20324;SDS011;10320;49.482;11.256;2023-07-08T05:11:32;5.37;;;4.90;;
20324;SDS011;10320;49.482;11.256;2023-07-08T05:13:59;5.10;;;4.60;;
20324;SDS011;10320;49.482;11.256;2023-07-08T05:16:25;6.00;;;5.40;;
20324;SDS011;10320;49.482;11.256;2023-07-08T05:18:51;5.67;;;5.17;;
20324;SDS011;10320;49.482;11.256;2023-07-08T05:21:17;5.80;;;5.00;;
20324;SDS011;10320;49.482;11.256;2023-07-08T05:23:44;6.97;;;5.37;;
20324;SDS011;10320;49.482;11.256;2023-07-08T05:26:10;6.13;;;5.30;;
20324;SDS011;10320;49.482;11.256;2023-07-08T05:28:36;6.32;;;5.40;;
20324;SDS011;10320;49.482;11.256;2023-07-08T05:31:02;4.97;;;4.45;;
20324;SDS011;10320;49.482;11.256;2023-07-08T05:33:29;5.72;;;5.15;;
20324;SDS011;10320;49.482;11.256;2023-07-08T05:35:56;5.25;;;4.75;;
20324;SDS011;10320;49.482;11.256;2023-07-08T05:38:23;5.65;;;5.05;;
20324;SDS011;10320;49.482;11.256;2023-07-08T05:40:49;5.50;;;4.90;;
20324;SDS011;10320;49.482;11.256;2023-07-08T05:43:16;6.13;;;4.85;;
20324;SDS011;10320;49.482;11.256;2023-07-08T05:45:42;6.05;;;4.80;;
20324;SDS011;10320;49.482;11.256;2023-07-08T05:48:08;6.20;;;5.20;;
20324;SDS011;10320;49.482;11.256;2023-07-08T05:50:34;5.57;;;5.07;;
20324;SDS011;10320;49.482;11.256;2023-07-08T05:53:00;5.93;;;4.80;;
20324;SDS011;10320;49.482;11.256;2023-07-08T05:55:26;5.88;;;4.82;;
20324;SDS011;10320;49.482;11.256;2023-07-08T05:57:52;6.85;;;5.05;;
20324;SDS011;10320;49.482;11.256;2023-07-08T06:00:18;6.03;;;5.30;;
20324;SDS011;10320;49.482;11.256;2023-07-08T06:02:44;5.32;;;4.82;;
20324;SDS011;10320;49.482;11.256;2023-07-08T06:05:10;6.35;;;5.10;;
20324;SDS011;10320;49.482;11.256;2023-07-08T06:07:36;6.15;;;5.00;;
20324;SDS011;10320;49.482;11.256;2023-07-08T06:10:02;5.95;;;5.35;;
20324;SDS011;10320;49.482;11.256;2023-07-08T06:12:29;7.97;;;5.03;;
20324;SDS011;10320;49.482;11.256;2023-07-08T06:14:55;8.60;;;5.57;;
20324;SDS011;10320;49.482;11.256;2023-07-08T06:17:21;5.90;;;5.30;;
20324;SDS011;10320;49.482;11.256;2023-07-08T06:19:47;6.28;;;4.80;;
20324;SDS011;10320;49.482;11.256;2023-07-08T06:22:13;7.28;;;5.10;;
20324;SDS011;10320;49.482;11.256;2023-07-08T06:24:39;6.22;;;5.63;;
20324;SDS011;10320;49.482;11.256;2023-07-08T06:27:04;5.70;;;5.10;;
20324;SDS011;10320;49.482;11.256;2023-07-08T06:29:31;5.55;;;5.05;;
20324;SDS011;10320;49.482;11.256;2023-07-08T06:31:58;6.45;;;4.97;;
20324;SDS011;10320;49.482;11.256;2023-07-08T06:34:23;6.65;;;5.57;;
20324;SDS011;10320;49.482;11.256;2023-07-08T06:36:49;5.90;;;5.30;;
20324;SDS011;10320;49.482;11.256;2023-07-08T06:39:16;5.20;;;4.70;;
20324;SDS011;10320;49.482;11.256;2023-07-08T06:41:42;6.35;;;5.30;;
20324;SDS011;10320;49.482;11.256;2023-07-08T06:44:08;5.43;;;4.90;;
20324;SDS011;10320;49.482;11.256;2023-07-08T06:46:34;5.65;;;5.15;;
20324;SDS011;10320;49.482;11.256;2023-07-08T06:49:00;5.82;;;5.15;;
20324;SDS011;10320;49.482;11.256;2023-07-08T06:51:25;5.50;;;5.00;;
20324;SDS011;10320;49.482;11.256;2023-07-08T06:53:51;5.97;;;4.95;;
20324;SDS011;10320;49.482;11.256;2023-07-08T06:56:17;5.95;;;5.40;;
20324;SDS011;10320;49.482;11.256;2023-07-08T06:58:43;6.07;;;5.30;;
20324;SDS011;10320;49.482;11.256;2023-07-08T07:01:08;5.75;;;5.03;;
20324;SDS011;10320;49.482;11.256;2023-07-08T07:03:34;5.68;;;5.07;;
20324;SDS011;10320;49.482;11.256;2023-07-08T07:06:00;5.63;;;5.07;;
20324;SDS011;10320;49.482;11.256;2023-07-08T07:08:25;5.55;;;4.70;;
20324;SDS011;10320;49.482;11.256;2023-07-08T07:10:51;5.95;;;5.15;;
20324;SDS011;10320;49.482;11.256;2023-07-08T07:13:17;5.60;;;5.10;;
20324;SDS011;10320;49.482;11.256;2023-07-08T07:15:42;6.22;;;5.63;;
20324;SDS011;10320;49.482;11.256;2023-07-08T07:18:08;5.65;;;4.97;;
20324;SDS011;10320;49.482;11.256;2023-07-08T07:20:35;5.60;;;5.10;;
20324;SDS011;10320;49.482;11.256;2023-07-08T07:23:02;5.63;;;5.13;;
20324;SDS011;10320;49.482;11.256;2023-07-08T07:25:28;6.07;;;5.47;;
20324;SDS011;10320;49.482;11.256;2023-07-08T07:27:53;5.05;;;4.60;;
20324;SDS011;10320;49.482;11.256;2023-07-08T07:30:19;5.60;;;5.00;;
20324;SDS011;10320;49.482;11.256;2023-07-08T07:32:45;5.47;;;4.95;;
20324;SDS011;10320;49.482;11.256;2023-07-08T07:35:11;5.38;;;4.82;;
20324;SDS011;10320;49.482;11.256;2023-07-08T07:37:39;5.35;;;4.85;;
20324;SDS011;10320;49.482;11.256;2023-07-08T07:40:06;6.63;;;4.97;;
20324;SDS011;10320;49.482;11.256;2023-07-08T07:42:37;5.22;;;4.72;;
20324;SDS011;10320;49.482;11.256;2023-07-08T07:45:07;6.10;;;4.47;;
20324;SDS011;10320;49.482;11.256;2023-07-08T07:47:34;5.28;;;4.78;;
20324;SDS011;10320;49.482;11.256;2023-07-08T07:50:00;5.72;;;5.13;;
20324;SDS011;10320;49.482;11.256;2023-07-08T07:52:27;6.22;;;4.85;;
20324;SDS011;10320;49.482;11.256;2023-07-08T07:54:53;5.20;;;4.70;;
20324;SDS011;10320;49.482;11.256;2023-07-08T07:57:20;5.13;;;4.70;;
20324;SDS011;10320;49.482;11.256;2023-07-08T07:59:47;5.32;;;4.82;;
20324;SDS011;10320;49.482;11.256;2023-07-08T08:02:13;5.25;;;4.75;;
20324;SDS011;10320;49.482;11.256;2023-07-08T08:04:39;5.13;;;4.65;;
20324;SDS011;10320;49.482;11.256;2023-07-08T08:07:05;4.75;;;4.32;;
20324;SDS011;10320;49.482;11.256;2023-07-08T08:09:31;4.90;;;4.50;;
20324;SDS011;10320;49.482;11.256;2023-07-08T08:11:56;4.97;;;4.57;;
20324;SDS011;10320;49.482;11.256;2023-07-08T08:14:22;5.03;;;4.47;;
20324;SDS011;10320;49.482;11.256;2023-07-08T08:16:48;5.78;;;5.28;;
20324;SDS011;10320;49.482;11.256;2023-07-08T08:19:13;6.88;;;5.00;;
20324;SDS011;10320;49.482;11.256;2023-07-08T08:21:39;5.10;;;4.63;;
20324;SDS011;10320;49.482;11.256;2023-07-08T08:24:05;5.00;;;4.50;;
20324;SDS011;10320;49.482;11.256;2023-07-08T08:26:30;4.95;;;4.45;;
20324;SDS011;10320;49.482;11.256;2023-07-08T08:28:56;5.95;;;4.50;;
20324;SDS011;10320;49.482;11.256;2023-07-08T08:31:22;5.55;;;4.32;;
20324;SDS011;10320;49.482;11.256;2023-07-08T08:33:48;4.57;;;4.00;;
20324;SDS011;10320;49.482;11.256;2023-07-08T08:36:16;4.07;;;3.70;;
20324;SDS011;10320;49.482;11.256;2023-07-08T08:38:41;4.30;;;3.88;;
20324;SDS011;10320;49.482;11.256;2023-07-08T08:41:14;4.68;;;3.97;;
20324;SDS011;10320;49.482;11.256;2023-07-08T08:43:42;4.88;;;4.30;;
20324;SDS011;10320;49.482;11.256;2023-07-08T08:49:15;4.47;;;3.97;;
20324;SDS011;10320;49.482;11.256;2023-07-08T08:51:47;4.43;;;3.95;;
20324;SDS011;10320;49.482;11.256;2023-07-08T08:54:14;4.53;;;4.13;;
20324;SDS011;10320;49.482;11.256;2023-07-08T08:59:33;4.45;;;4.05;;
20324;SDS011;10320;49.482;11.256;2023-07-08T09:02:07;6.10;;;4.07;;
20324;SDS011;10320;49.482;11.256;2023-07-08T09:04:51;4.72;;;4.20;;
20324;SDS011;10320;49.482;11.256;2023-07-08T09:07:18;4.28;;;3.90;;
20324;SDS011;10320;49.482;11.256;2023-07-08T09:12:29;4.43;;;4.03;;
20324;SDS011;10320;49.482;11.256;2023-07-08T09:14:57;4.93;;;3.92;;
20324;SDS011;10320;49.482;11.256;2023-07-08T09:22:41;4.35;;;3.63;;
20324;SDS011;10320;49.482;11.256;2023-07-08T09:25:24;3.90;;;3.60;;
20324;SDS011;10320;49.482;11.256;2023-07-08T09:27:52;4.70;;;3.53;;
20324;SDS011;10320;49.482;11.256;2023-07-08T09:30:19;4.75;;;4.35;;
20324;SDS011;10320;49.482;11.256;2023-07-08T09:32:49;5.80;;;3.83;;
20324;SDS011;10320;49.482;11.256;2023-07-08T09:37:49;4.32;;;3.67;;
20324;SDS011;10320;49.482;11.256;2023-07-08T09:40:19;4.15;;;3.85;;
20324;SDS011;10320;49.482;11.256;2023-07-08T09:43:09;4.22;;;3.67;;
20324;SDS011;10320;49.482;11.256;2023-07-08T09:45:47;4.03;;;3.65;;
20324;SDS011;10320;49.482;11.256;2023-07-08T09:48:26;4.20;;;3.80;;
20324;SDS011;10320;49.482;11.256;2023-07-08T09:50:53;4.25;;;3.85;;
20324;SDS011;10320;49.482;11.256;2023-07-08T09:53:21;4.63;;;3.70;;
20324;SDS011;10320;49.482;11.256;2023-07-08T09:55:47;4.50;;;3.92;;
20324;SDS011;10320;49.482;11.256;2023-07-08T09:58:18;4.15;;;3.75;;
20324;SDS011;10320;49.482;11.256;2023-07-08T10:01:08;4.47;;;4.05;;
20324;SDS011;10320;49.482;11.256;2023-07-08T10:03:36;4.10;;;3.55;;
20324;SDS011;10320;49.482;11.256;2023-07-08T10:06:03;3.97;;;3.67;;
20324;SDS011;10320;49.482;11.256;2023-07-08T10:08:37;4.10;;;3.80;;
20324;SDS011;10320;49.482;11.256;2023-07-08T10:13:42;3.97;;;3.65;;
20324;SDS011;10320;49.482;11.256;2023-07-08T10:16:17;4.15;;;3.85;;
20324;SDS011;10320;49.482;11.256;2023-07-08T10:18:53;4.20;;;3.78;;
20324;SDS011;10320;49.482;11.256;2023-07-08T10:26:44;4.65;;;3.53;;
20324;SDS011;10320;49.482;11.256;2023-07-08T10:32:40;3.92;;;3.63;;
20324;SDS011;10320;49.482;11.256;2023-07-08T10:35:17;4.35;;;3.60;;
20324;SDS011;10320;49.482;11.256;2023-07-08T10:49:04;3.83;;;3.53;;
20324;SDS011;10320;49.482;11.256;2023-07-08T11:10:44;4.57;;;3.83;;
20324;SDS011;10320;49.482;11.256;2023-07-08T11:13:20;4.05;;;3.65;;
20324;SDS011;10320;49.482;11.256;2023-07-08T11:15:50;4.60;;;3.88;;
20324;SDS011;10320;49.482;11.256;2023-07-08T11:18:25;3.90;;;3.50;;
20324;SDS011;10320;49.482;11.256;2023-07-08T11:21:12;3.90;;;3.60;;
20324;SDS011;10320;49.482;11.256;2023-07-08T11:26:39;3.80;;;3.50;;
20324;SDS011;10320;49.482;11.256;2023-07-08T11:29:19;3.67;;;3.38;;
20324;SDS011;10320;49.482;11.256;2023-07-08T11:31:46;4.85;;;4.22;;
20324;SDS011;10320;49.482;11.256;2023-07-08T11:34:13;4.43;;;4.07;;
20324;SDS011;10320;49.482;11.256;2023-07-08T11:36:42;4.05;;;3.72;;
20324;SDS011;10320;49.482;11.256;2023-07-08T11:39:30;4.10;;;3.63;;
20324;SDS011;10320;49.482;11.256;2023-07-08T11:44:59;4.10;;;3.70;;
20324;SDS011;10320;49.482;11.256;2023-07-08T11:47:41;3.80;;;3.50;;
20324;SDS011;10320;49.482;11.256;2023-07-08T11:50:22;5.20;;;3.80;;
20324;SDS011;10320;49.482;11.256;2023-07-08T11:53:00;4.47;;;4.07;;
20324;SDS011;10320;49.482;11.256;2023-07-08T11:58:22;4.30;;;3.90;;
20324;SDS011;10320;49.482;11.256;2023-07-08T12:00:54;4.43;;;4.05;;
20324;SDS011;10320;49.482;11.256;2023-07-08T12:03:28;4.53;;;3.97;;
20324;SDS011;10320;49.482;11.256;2023-07-08T12:06:00;4.30;;;3.85;;
20324;SDS011;10320;49.482;11.256;2023-07-08T12:08:36;4.68;;;4.00;;
20324;SDS011;10320;49.482;11.256;2023-07-08T12:11:08;3.92;;;3.63;;
20324;SDS011;10320;49.482;11.256;2023-07-08T12:13:37;4.07;;;3.70;;
20324;SDS011;10320;49.482;11.256;2023-07-08T12:16:07;4.38;;;3.97;;
20324;SDS011;10320;49.482;11.256;2023-07-08T12:18:38;4.32;;;3.58;;
20324;SDS011;10320;49.482;11.256;2023-07-08T12:21:11;4.65;;;4.18;;
20324;SDS011;10320;49.482;11.256;2023-07-08T12:23:43;5.35;;;3.63;;
20324;SDS011;10320;49.482;11.256;2023-07-08T12:26:10;4.65;;;4.25;;
20324;SDS011;10320;49.482;11.256;2023-07-08T12:28:38;5.03;;;3.95;;
20324;SDS011;10320;49.482;11.256;2023-07-08T12:33:57;4.40;;;4.00;;
20324;SDS011;10320;49.482;11.256;2023-07-08T12:36:25;4.40;;;3.95;;
20324;SDS011;10320;49.482;11.256;2023-07-08T12:38:54;4.50;;;3.60;;
20324;SDS011;10320;49.482;11.256;2023-07-08T12:41:28;4.00;;;3.60;;
20324;SDS011;10320;49.482;11.256;2023-07-08T12:43:56;3.83;;;3.50;;
20324;SDS011;10320;49.482;11.256;2023-07-08T12:46:23;3.97;;;3.67;;
20324;SDS011;10320;49.482;11.256;2023-07-08T12:48:51;4.05;;;3.75;;
20324;SDS011;10320;49.482;11.256;2023-07-08T12:51:17;4.10;;;3.80;;
20324;SDS011;10320;49.482;11.256;2023-07-08T12:53:48;4.28;;;3.88;;
20324;SDS011;10320;49.482;11.256;2023-07-08T12:56:15;4.55;;;4.15;;
20324;SDS011;10320;49.482;11.256;2023-07-08T12:58:49;4.65;;;4.07;;
20324;SDS011;10320;49.482;11.256;2023-07-08T13:01:19;4.32;;;3.88;;
20324;SDS011;10320;49.482;11.256;2023-07-08T13:03:50;4.63;;;4.13;;
20324;SDS011;10320;49.482;11.256;2023-07-08T13:06:21;3.75;;;3.45;;
20324;SDS011;10320;49.482;11.256;2023-07-08T13:08:50;4.10;;;3.70;;
20324;SDS011;10320;49.482;11.256;2023-07-08T13:11:17;3.97;;;3.67;;
20324;SDS011;10320;49.482;11.256;2023-07-08T13:13:57;4.43;;;3.35;;
20324;SDS011;10320;49.482;11.256;2023-07-08T13:16:28;4.75;;;3.53;;
20324;SDS011;10320;49.482;11.256;2023-07-08T13:18:56;4.05;;;3.65;;
20324;SDS011;10320;49.482;11.256;2023-07-08T13:21:22;4.28;;;3.88;;
20324;SDS011;10320;49.482;11.256;2023-07-08T13:23:49;3.92;;;3.63;;
20324;SDS011;10320;49.482;11.256;2023-07-08T13:26:16;4.15;;;3.75;;
20324;SDS011;10320;49.482;11.256;2023-07-08T13:28:44;3.95;;;3.65;;
20324;SDS011;10320;49.482;11.256;2023-07-08T13:31:21;4.32;;;3.92;;
20324;SDS011;10320;49.482;11.256;2023-07-08T13:33:49;3.78;;;3.47;;
20324;SDS011;10320;49.482;11.256;2023-07-08T13:36:17;3.95;;;3.58;;
20324;SDS011;10320;49.482;11.256;2023-07-08T13:38:45;3.95;;;3.65;;
20324;SDS011;10320;49.482;11.256;2023-07-08T13:41:15;4.07;;;3.67;;
20324;SDS011;10320;49.482;11.256;2023-07-08T13:43:47;4.80;;;3.28;;
20324;SDS011;10320;49.482;11.256;2023-07-08T13:46:57;3.90;;;3.60;;
20324;SDS011;10320;49.482;11.256;2023-07-08T13:49:14;4.00;;;3.70;;
20324;SDS011;10320;49.482;11.256;2023-07-08T13:51:45;3.85;;;3.55;;
20324;SDS011;10320;49.482;11.256;2023-07-08T13:56:50;3.70;;;3.33;;
20324;SDS011;10320;49.482;11.256;2023-07-08T13:59:24;4.03;;;3.72;;
20324;SDS011;10320;49.482;11.256;2023-07-08T14:01:54;3.60;;;3.30;;
20324;SDS011;10320;49.482;11.256;2023-07-08T14:04:30;4.53;;;3.80;;
20324;SDS011;10320;49.482;11.256;2023-07-08T14:06:56;4.05;;;3.75;;
20324;SDS011;10320;49.482;11.256;2023-07-08T14:09:23;4.25;;;3.88;;
20324;SDS011;10320;49.482;11.256;2023-07-08T14:11:49;4.03;;;3.65;;
20324;SDS011;10320;49.482;11.256;2023-07-08T14:14:16;4.10;;;3.80;;
20324;SDS011;10320;49.482;11.256;2023-07-08T14:16:43;3.63;;;3.33;;
20324;SDS011;10320;49.482;11.256;2023-07-08T14:19:15;3.85;;;3.55;;
20324;SDS011;10320;49.482;11.256;2023-07-08T14:21:44;3.42;;;3.22;;
20324;SDS011;10320;49.482;11.256;2023-07-08T14:24:11;3.58;;;3.38;;
20324;SDS011;10320;49.482;11.256;2023-07-08T14:26:41;4.15;;;3.78;;
20324;SDS011;10320;49.482;11.256;2023-07-08T14:29:08;3.97;;;3.65;;
20324;SDS011;10320;49.482;11.256;2023-07-08T14:31:34;3.90;;;3.60;;
20324;SDS011;10320;49.482;11.256;2023-07-08T14:34:05;3.70;;;3.40;;
20324;SDS011;10320;49.482;11.256;2023-07-08T14:36:33;3.90;;;3.53;;
20324;SDS011;10320;49.482;11.256;2023-07-08T14:39:09;3.40;;;3.20;;
20324;SDS011;10320;49.482;11.256;2023-07-08T14:41:38;4.03;;;3.40;;
20324;SDS011;10320;49.482;11.256;2023-07-08T14:44:24;3.70;;;3.40;;
20324;SDS011;10320;49.482;11.256;2023-07-08T14:46:55;3.45;;;3.15;;
20324;SDS011;10320;49.482;11.256;2023-07-08T14:49:22;3.50;;;3.20;;
20324;SDS011;10320;49.482;11.256;2023-07-08T14:51:48;3.55;;;3.25;;
20324;SDS011;10320;49.482;11.256;2023-07-08T14:54:15;3.90;;;3.60;;
20324;SDS011;10320;49.482;11.256;2023-07-08T14:56:41;3.67;;;3.38;;
20324;SDS011;10320;49.482;11.256;2023-07-08T14:59:10;3.65;;;3.35;;
20324;SDS011;10320;49.482;11.256;2023-07-08T15:01:38;4.15;;;3.45;;
20324;SDS011;10320;49.482;11.256;2023-07-08T15:04:08;4.10;;;3.80;;
20324;SDS011;10320;49.482;11.256;2023-07-08T15:06:35;3.72;;;3.42;;
20324;SDS011;10320;49.482;11.256;2023-07-08T15:09:01;3.65;;;3.40;;
20324;SDS011;10320;49.482;11.256;2023-07-08T15:11:27;3.83;;;3.53;;
20324;SDS011;10320;49.482;11.256;2023-07-08T15:13:52;3.65;;;3.35;;
20324;SDS011;10320;49.482;11.256;2023-07-08T15:16:18;3.70;;;3.40;;
20324;SDS011;10320;49.482;11.256;2023-07-08T15:18:44;3.38;;;3.08;;
20324;SDS011;10320;49.482;11.256;2023-07-08T15:21:11;3.30;;;3.10;;
20324;SDS011;10320;49.482;11.256;2023-07-08T15:23:37;3.70;;;3.40;;
20324;SDS011;10320;49.482;11.256;2023-07-08T15:26:10;3.80;;;3.50;;
20324;SDS011;10320;49.482;11.256;2023-07-08T15:28:41;3.53;;;3.33;;
20324;SDS011;10320;49.482;11.256;2023-07-08T15:31:12;3.70;;;3.40;;
20324;SDS011;10320;49.482;11.256;2023-07-08T15:33:53;3.90;;;3.60;;
20324;SDS011;10320;49.482;11.256;2023-07-08T15:36:20;3.72;;;3.42;;
20324;SDS011;10320;49.482;11.256;2023-07-08T15:38:46;4.05;;;3.42;;
20324;SDS011;10320;49.482;11.256;2023-07-08T15:41:16;3.90;;;3.60;;
20324;SDS011;10320;49.482;11.256;2023-07-08T15:43:44;3.75;;;3.20;;
20324;SDS011;10320;49.482;11.256;2023-07-08T15:46:10;4.35;;;3.90;;
20324;SDS011;10320;49.482;11.256;2023-07-08T15:51:41;4.03;;;3.67;;
20324;SDS011;10320;49.482;11.256;2023-07-08T15:54:07;3.55;;;3.25;;
20324;SDS011;10320;49.482;11.256;2023-07-08T15:56:33;4.72;;;3.35;;
20324;SDS011;10320;49.482;11.256;2023-07-08T15:58:59;3.90;;;3.60;;
20324;SDS011;10320;49.482;11.256;2023-07-08T16:01:28;4.10;;;3.78;;